Terminal Aerodrome Forecast
Issued by NWS St Louis, MO

Home | Current Version | Previous Version | Text Only | Print | Product List | Glossary On
Versions: 1 2 3 4 5 6 7 8 9 10 11 12 13 14 15 16 17 18 19 20 21 22 23 24 25 26 27 28 29
574
FTUS43 KLSX 220902 AAA
TAFSTL
TAF AMD
KSTL 220902Z 2209/2312 32012KT 5SM -SHRA VCTS SCT030 BKN050CB
      TEMPO 2209/2212 VRB25KT 3SM -TSRA OVC030CB
     FM221600 27008KT P6SM VCTS OVC050CB
     FM221900 29009KT P6SM OVC035
     FM222300 32007KT P6SM BKN060
     FM230100 35005KT P6SM SCT080
     FM231100 VRB03KT P6SM FEW250=

USA.gov is the U.S. government's official web portal to all federal, state and local government web resources and services.